createdAt,value
2019-01-19T00:00:28.472Z,10.63
2019-01-19T00:03:26.101Z,10.70
2019-01-19T00:06:34.259Z,9.60
2019-01-19T00:09:18.585Z,10.20
2019-01-19T00:12:21.552Z,10.35
2019-01-19T00:15:26.851Z,10.35
2019-01-19T00:18:46.252Z,10.58
2019-01-19T00:21:58.743Z,9.60
2019-01-19T00:24:41.876Z,9.70
2019-01-19T00:27:59.157Z,10.53
2019-01-19T00:31:10.979Z,11.30
2019-01-19T00:34:15.897Z,10.40
2019-01-19T00:37:31.434Z,10.03
2019-01-19T00:40:39.690Z,9.68
2019-01-19T00:43:37.365Z,8.75
2019-01-19T00:46:48.671Z,9.73
2019-01-19T00:49:42.873Z,10.15
2019-01-19T00:53:08.069Z,10.43
2019-01-19T00:56:10.559Z,10.55
2019-01-19T00:58:47.189Z,9.95
2019-01-19T01:01:52.556Z,9.58
2019-01-19T01:04:54.427Z,10.50
2019-01-19T01:08:11.697Z,9.55
2019-01-19T01:11:08.783Z,9.75
2019-01-19T01:14:37.439Z,10.00
2019-01-19T01:17:27.888Z,9.53
2019-01-19T01:20:26.353Z,8.88
2019-01-19T01:23:26.480Z,9.55
2019-01-19T01:26:31.739Z,9.28
2019-01-19T01:29:36.717Z,9.40
2019-01-19T01:32:27.892Z,10.63
2019-01-19T01:35:32.710Z,10.18
2019-01-19T01:38:32.345Z,9.28
2019-01-19T01:41:29.057Z,9.80
2019-01-19T01:44:44.779Z,10.65
2019-01-19T01:47:47.138Z,10.30
2019-01-19T01:51:02.214Z,9.50
2019-01-19T01:53:52.083Z,11.03
2019-01-19T01:56:31.788Z,9.88
2019-01-19T01:59:08.204Z,10.13
2019-01-19T02:02:01.940Z,10.88
2019-01-19T02:05:17.184Z,9.93
2019-01-19T02:08:29.521Z,9.50
2019-01-19T02:11:29.965Z,9.60
2019-01-19T02:14:35.835Z,9.25
2019-01-19T02:18:16.542Z,8.75
2019-01-19T02:21:27.845Z,9.18
2019-01-19T02:24:14.400Z,9.80
2019-01-19T02:27:29.209Z,8.50
2019-01-19T02:30:24.489Z,9.68
2019-01-19T02:33:20.054Z,8.88
2019-01-19T02:36:21.866Z,8.75
2019-01-19T02:39:27.873Z,8.95
2019-01-19T02:42:42.173Z,9.25
2019-01-19T02:45:56.982Z,8.70
2019-01-19T02:49:13.157Z,9.13
2019-01-19T02:52:09.714Z,8.18
2019-01-19T02:55:17.892Z,8.73
2019-01-19T02:58:31.108Z,8.88
2019-01-19T03:01:17.592Z,8.30
2019-01-19T03:04:02.827Z,9.60
2019-01-19T03:06:40.998Z,9.55
2019-01-19T03:09:20.472Z,9.83
2019-01-19T03:12:00.158Z,9.75
2019-01-19T03:14:58.514Z,8.68
2019-01-19T03:18:29.927Z,9.30
2019-01-19T03:21:42.037Z,10.10
2019-01-19T03:24:55.905Z,10.75
2019-01-19T03:27:44.859Z,10.45
2019-01-19T03:30:34.134Z,10.20
2019-01-19T03:33:35.242Z,10.18
2019-01-19T03:36:43.428Z,9.85
2019-01-19T03:39:52.825Z,9.10
2019-01-19T03:43:10.244Z,10.50
2019-01-19T03:46:16.160Z,10.18
2019-01-19T03:49:05.172Z,10.35
2019-01-19T03:51:46.242Z,9.50
2019-01-19T03:54:57.400Z,10.30
2019-01-19T03:58:02.265Z,8.75
2019-01-19T04:01:14.813Z,9.90
2019-01-19T04:04:04.092Z,8.80
2019-01-19T04:06:57.168Z,9.68
2019-01-19T04:10:06.197Z,9.50
2019-01-19T04:12:59.647Z,9.40
2019-01-19T04:15:59.069Z,9.55
2019-01-19T04:19:17.677Z,8.90
2019-01-19T04:22:26.926Z,9.63
2019-01-19T04:25:48.602Z,8.80
2019-01-19T04:28:19.212Z,9.35
2019-01-19T04:30:49.715Z,8.53
2019-01-19T04:33:19.000Z,8.98
2019-01-19T04:35:47.954Z,8.70
2019-01-19T04:38:16.868Z,9.28
2019-01-19T04:40:45.877Z,8.45
2019-01-19T04:43:14.890Z,9.18
2019-01-19T04:46:02.768Z,8.50
2019-01-19T04:48:31.748Z,9.35
2019-01-19T04:51:00.826Z,8.53
2019-01-19T04:53:29.812Z,8.78
2019-01-19T04:55:58.705Z,9.00
2019-01-19T04:58:27.607Z,9.40
2019-01-19T05:00:57.003Z,9.00
2019-01-19T05:03:25.903Z,9.00
2019-01-19T05:05:54.800Z,8.08
2019-01-19T05:08:23.626Z,9.13
2019-01-19T05:10:52.496Z,8.35
2019-01-19T05:13:21.326Z,8.10
2019-01-19T05:15:50.141Z,9.40
2019-01-19T05:18:19.120Z,8.25
2019-01-19T05:20:48.171Z,8.65
2019-01-19T05:23:17.245Z,7.60
2019-01-19T05:25:46.061Z,7.85
2019-01-19T05:28:14.888Z,8.20
2019-01-19T05:30:43.964Z,8.13
2019-01-19T05:33:12.948Z,8.73
2019-01-19T05:35:41.851Z,7.42
2019-01-19T05:38:10.726Z,8.35
2019-01-19T05:40:39.872Z,8.18
2019-01-19T05:43:08.996Z,7.55
2019-01-19T05:45:37.893Z,8.08
2019-01-19T05:48:06.705Z,8.25
2019-01-19T05:50:35.627Z,9.50
2019-01-19T05:53:04.589Z,7.33
2019-01-19T05:55:33.508Z,7.85
2019-01-19T05:58:02.469Z,6.95
2019-01-19T06:00:33.966Z,8.60
2019-01-19T06:03:02.925Z,8.35
2019-01-19T06:05:32.148Z,8.50
2019-01-19T06:08:00.979Z,8.00
2019-01-19T06:10:29.949Z,9.18
2019-01-19T06:12:58.766Z,6.90
2019-01-19T06:15:27.925Z,8.60
2019-01-19T06:17:59.057Z,7.10
2019-01-19T06:20:27.919Z,7.80
2019-01-19T06:23:06.060Z,8.75
2019-01-19T06:25:34.980Z,7.75
2019-01-19T06:28:12.864Z,7.60
2019-01-19T06:30:41.717Z,7.35
2019-01-19T06:33:10.676Z,8.23
2019-01-19T06:35:39.508Z,9.23
2019-01-19T06:38:08.525Z,8.00
2019-01-19T06:40:45.250Z,8.70
2019-01-19T06:43:14.785Z,7.95
2019-01-19T06:45:50.030Z,9.10
2019-01-19T06:48:25.904Z,8.68
2019-01-19T06:50:54.833Z,8.15
2019-01-19T06:53:23.749Z,8.25
2019-01-19T06:55:52.734Z,8.05
2019-01-19T06:58:23.655Z,8.68
2019-01-19T07:00:52.690Z,8.10
2019-01-19T07:03:27.676Z,8.03
2019-01-19T07:05:56.797Z,9.60
2019-01-19T07:08:30.804Z,9.25
2019-01-19T07:11:01.659Z,8.58
2019-01-19T07:13:31.642Z,9.10
2019-01-19T07:16:29.654Z,8.45
2019-01-19T07:19:06.018Z,9.43
2019-01-19T07:21:41.252Z,8.40
2019-01-19T07:24:17.460Z,6.90
2019-01-19T07:26:47.366Z,9.15
2019-01-19T07:29:28.437Z,8.83
2019-01-19T07:31:59.486Z,8.50
2019-01-19T07:34:28.529Z,8.55
2019-01-19T07:36:59.476Z,9.98
2019-01-19T07:39:30.441Z,10.45
2019-01-19T07:42:04.530Z,10.32
2019-01-19T07:44:34.427Z,9.40
2019-01-19T07:47:04.506Z,8.83
2019-01-19T07:49:34.556Z,8.83
2019-01-19T07:52:03.949Z,8.53
2019-01-19T07:54:32.964Z,9.28
2019-01-19T07:57:03.993Z,9.35
2019-01-19T07:59:40.021Z,10.50
2019-01-19T08:02:09.061Z,9.63
2019-01-19T08:04:40.112Z,8.60
2019-01-19T08:07:17.104Z,10.03
2019-01-19T08:09:40.855Z,8.93
2019-01-19T08:12:09.905Z,10.23
2019-01-19T08:14:38.990Z,10.18
2019-01-19T08:17:09.464Z,10.65
2019-01-19T08:19:44.508Z,9.83
2019-01-19T08:22:31.457Z,10.00
2019-01-19T08:25:02.518Z,9.83
2019-01-19T08:27:32.639Z,10.43
2019-01-19T08:30:01.768Z,10.00
2019-01-19T08:32:32.701Z,11.38
2019-01-19T08:35:01.842Z,10.93
2019-01-19T08:37:33.272Z,9.38
2019-01-19T08:40:03.404Z,10.80
2019-01-19T08:42:46.104Z,9.30
2019-01-19T08:45:24.150Z,10.13
2019-01-19T08:47:53.069Z,10.72
2019-01-19T08:50:26.056Z,10.68
2019-01-19T08:53:05.918Z,11.65
2019-01-19T08:55:53.587Z,10.38
2019-01-19T08:59:15.546Z,11.38
2019-01-19T09:02:00.133Z,10.85
2019-01-19T09:04:35.153Z,11.48
2019-01-19T09:10:27.516Z,11.35
2019-01-19T09:13:03.663Z,10.78
2019-01-19T09:15:38.981Z,10.18
2019-01-19T09:18:08.531Z,12.53
2019-01-19T09:20:51.510Z,12.05
2019-01-19T09:23:37.703Z,12.78
2019-01-19T09:26:14.664Z,12.75
2019-01-19T09:28:43.688Z,13.10
2019-01-19T09:31:13.770Z,12.30
2019-01-19T09:33:42.798Z,13.55
2019-01-19T09:36:11.815Z,12.00
2019-01-19T09:38:41.743Z,11.80
2019-01-19T09:41:10.794Z,10.32
2019-01-19T09:43:40.749Z,10.82
2019-01-19T09:46:18.917Z,10.98
2019-01-19T09:48:47.945Z,11.73
2019-01-19T09:51:16.958Z,11.78
2019-01-19T09:53:45.800Z,12.73
2019-01-19T09:56:14.713Z,11.57
2019-01-19T09:58:49.342Z,12.73
2019-01-19T10:01:21.835Z,11.53
2019-01-19T10:03:50.744Z,12.00
2019-01-19T10:06:20.738Z,10.25
2019-01-19T10:08:49.634Z,12.13
2019-01-19T10:11:18.611Z,12.50
2019-01-19T10:13:47.664Z,9.48
2019-01-19T10:16:16.720Z,10.70
2019-01-19T10:18:45.574Z,9.73
2019-01-19T10:21:14.574Z,11.20
2019-01-19T10:23:53.479Z,10.82
2019-01-19T10:26:22.520Z,10.30
2019-01-19T10:28:51.929Z,9.75
2019-01-19T10:31:33.893Z,9.80
2019-01-19T10:34:03.785Z,12.70
2019-01-19T10:36:35.753Z,9.73
2019-01-19T10:39:08.172Z,10.72
2019-01-19T10:41:41.053Z,10.48
2019-01-19T10:44:23.129Z,11.10
2019-01-19T10:46:59.174Z,11.68
2019-01-19T10:49:28.284Z,10.80
2019-01-19T10:51:59.533Z,12.93
2019-01-19T10:54:43.847Z,11.30
2019-01-19T10:57:12.871Z,12.07
2019-01-19T10:59:43.825Z,12.47
2019-01-19T11:02:22.652Z,12.70
2019-01-19T11:05:02.986Z,11.78
2019-01-19T11:07:33.188Z,13.00
2019-01-19T11:10:02.266Z,12.30
2019-01-19T11:12:32.314Z,13.32
2019-01-19T11:15:11.897Z,13.22
2019-01-19T11:17:43.009Z,13.80
2019-01-19T11:20:18.996Z,12.45
2019-01-19T11:22:48.068Z,12.20
2019-01-19T11:25:19.098Z,13.50
2019-01-19T11:27:48.170Z,13.93
2019-01-19T11:30:30.626Z,14.60
2019-01-19T11:33:00.980Z,12.58
2019-01-19T11:35:30.090Z,13.03
2019-01-19T11:37:59.131Z,12.53
2019-01-19T11:40:38.679Z,12.68
2019-01-19T11:43:10.269Z,11.78
2019-01-19T11:45:41.365Z,12.65
2019-01-19T11:48:21.508Z,12.88
2019-01-19T11:50:56.811Z,13.20
2019-01-19T11:53:26.806Z,12.47
2019-01-19T11:55:55.832Z,11.83
2019-01-19T11:58:24.766Z,12.82
2019-01-19T12:00:55.804Z,11.78
2019-01-19T12:03:32.629Z,13.05
2019-01-19T12:06:03.231Z,12.50
2019-01-19T12:08:32.151Z,12.82
2019-01-19T12:11:01.088Z,12.05
2019-01-19T12:13:31.026Z,13.18
2019-01-19T12:16:00.058Z,12.18
2019-01-19T12:18:31.118Z,13.25
2019-01-19T12:21:00.080Z,12.63
2019-01-19T12:23:28.922Z,13.38
2019-01-19T12:25:57.861Z,13.18
2019-01-19T12:28:26.744Z,12.20
2019-01-19T12:30:55.745Z,11.73
2019-01-19T12:33:24.769Z,14.63
2019-01-19T12:35:54.684Z,14.53
2019-01-19T12:38:26.950Z,14.83
2019-01-19T12:40:55.762Z,14.40
2019-01-19T12:43:43.814Z,14.55
2019-01-19T12:46:14.907Z,13.48
2019-01-19T12:48:43.853Z,13.70
2019-01-19T12:51:21.236Z,12.80
2019-01-19T12:53:56.556Z,13.98
2019-01-19T12:56:25.473Z,12.63
2019-01-19T12:58:54.517Z,13.55
2019-01-19T13:01:23.593Z,14.73
2019-01-19T13:03:52.720Z,12.07
2019-01-19T13:06:50.413Z,15.63
2019-01-19T13:09:27.206Z,14.75
2019-01-19T13:12:11.484Z,13.08
2019-01-19T13:14:47.515Z,14.60
2019-01-19T13:17:44.545Z,12.88
2019-01-19T13:20:34.450Z,14.18
2019-01-19T13:23:55.248Z,14.05
2019-01-19T13:27:07.662Z,14.00
2019-01-19T13:30:08.006Z,13.93
2019-01-19T13:33:00.197Z,12.60
2019-01-19T13:36:07.336Z,13.28
2019-01-19T13:39:36.473Z,12.10
2019-01-19T13:42:52.576Z,15.25
2019-01-19T13:45:47.639Z,13.38
2019-01-19T13:48:41.152Z,13.68
2019-01-19T13:51:39.112Z,12.75
2019-01-19T13:54:43.688Z,13.35
2019-01-19T13:57:35.612Z,12.20
2019-01-19T14:00:54.941Z,12.78
2019-01-19T14:03:36.449Z,12.10
2019-01-19T14:06:58.804Z,11.48
2019-01-19T14:10:11.425Z,11.85
2019-01-19T14:13:57.929Z,12.20
2019-01-19T14:17:06.653Z,10.98
2019-01-19T14:20:17.511Z,12.18
2019-01-19T14:23:26.817Z,11.10
2019-01-19T14:26:24.950Z,11.90
2019-01-19T14:29:40.563Z,12.60
2019-01-19T14:32:46.689Z,11.48
2019-01-19T14:35:44.475Z,12.82
2019-01-19T14:39:04.249Z,11.22
2019-01-19T14:42:14.192Z,11.40
2019-01-19T14:45:04.055Z,12.65
2019-01-19T14:48:03.274Z,10.80
2019-01-19T14:51:02.732Z,11.28
2019-01-19T14:53:44.642Z,12.53
2019-01-19T14:56:54.682Z,11.48
2019-01-19T14:59:32.930Z,11.57
2019-01-19T15:02:56.792Z,11.15
2019-01-19T15:05:58.861Z,10.95
2019-01-19T15:09:03.851Z,11.12
2019-01-19T15:11:48.535Z,11.70
2019-01-19T15:14:52.846Z,13.30
2019-01-19T15:18:09.938Z,12.63
2019-01-19T15:21:06.126Z,12.95
2019-01-19T15:24:13.667Z,11.35
2019-01-19T15:27:44.018Z,10.98
2019-01-19T15:30:42.625Z,10.58
2019-01-19T15:33:27.955Z,12.85
2019-01-19T15:36:42.941Z,11.15
2019-01-19T15:39:40.473Z,10.50
2019-01-19T15:42:45.246Z,12.30
2019-01-19T15:46:33.515Z,12.50
2019-01-19T15:49:32.989Z,15.58
2019-01-19T15:52:27.705Z,13.50
2019-01-19T15:55:34.988Z,12.65
2019-01-19T15:58:27.609Z,11.35
2019-01-19T16:01:42.600Z,11.80
2019-01-19T16:04:54.899Z,12.25
2019-01-19T16:08:02.488Z,18.48
2019-01-19T16:11:03.445Z,16.17
2019-01-19T16:14:20.679Z,15.05
2019-01-19T16:17:28.167Z,13.15
2019-01-19T16:20:37.255Z,11.95
2019-01-19T16:24:10.018Z,10.93
2019-01-19T16:27:14.221Z,10.85
2019-01-19T16:30:17.583Z,11.93
2019-01-19T16:33:13.549Z,11.40
2019-01-19T16:35:53.001Z,12.25
2019-01-19T16:39:07.421Z,12.00
2019-01-19T16:41:53.922Z,11.68
2019-01-19T16:45:02.435Z,13.38
2019-01-19T16:48:15.769Z,12.53
2019-01-19T16:51:44.166Z,13.80
2019-01-19T16:54:57.590Z,12.82
2019-01-19T16:58:02.608Z,14.23
2019-01-19T17:01:03.426Z,14.83
2019-01-19T17:03:58.340Z,14.40
2019-01-19T17:06:50.507Z,16.05
2019-01-19T17:09:50.569Z,15.32
2019-01-19T17:13:06.535Z,14.58
2019-01-19T17:16:15.397Z,16.57
2019-01-19T17:19:26.116Z,16.02
2019-01-19T17:22:25.743Z,15.65
2019-01-19T17:25:39.166Z,17.23
2019-01-19T17:28:38.478Z,15.63
2019-01-19T17:31:52.302Z,15.48
2019-01-19T17:35:01.438Z,15.65
2019-01-19T17:38:01.234Z,15.40
2019-01-19T17:41:23.863Z,16.87
2019-01-19T17:44:07.538Z,16.65
2019-01-19T17:46:51.794Z,16.70
2019-01-19T17:49:58.137Z,18.35
2019-01-19T17:53:18.577Z,17.10
2019-01-19T17:56:21.338Z,18.23
2019-01-19T17:59:26.303Z,18.42
2019-01-19T18:02:35.248Z,16.75
2019-01-19T18:05:33.100Z,19.05
2019-01-19T18:08:44.293Z,18.48
2019-01-19T18:11:59.142Z,18.50
2019-01-19T18:15:30.290Z,18.62
2019-01-19T18:18:29.297Z,19.02
2019-01-19T18:21:18.098Z,18.25
2019-01-19T18:24:28.301Z,17.10
2019-01-19T18:27:36.194Z,19.37
2019-01-19T18:30:47.050Z,20.30
2019-01-19T18:33:47.359Z,18.55
2019-01-19T18:36:32.529Z,21.68
2019-01-19T18:39:43.105Z,20.82
2019-01-19T18:42:44.940Z,20.80
2019-01-19T18:45:50.424Z,22.30
2019-01-19T18:48:55.693Z,23.73
2019-01-19T18:51:58.313Z,24.37
2019-01-19T18:54:59.446Z,26.35
2019-01-19T18:58:14.362Z,25.77
2019-01-19T19:00:51.562Z,22.77
2019-01-19T19:03:54.865Z,28.25
2019-01-19T19:07:33.426Z,29.57
2019-01-19T19:10:44.703Z,26.45
2019-01-19T19:13:51.873Z,23.50
2019-01-19T19:17:13.046Z,30.00
2019-01-19T19:20:06.340Z,19.92
2019-01-19T19:23:15.002Z,22.07
2019-01-19T19:26:35.773Z,23.73
2019-01-19T19:29:57.089Z,19.17
2019-01-19T19:32:50.897Z,18.40
2019-01-19T19:36:05.830Z,17.82
2019-01-19T19:38:58.658Z,18.90
2019-01-19T19:42:07.247Z,17.17
2019-01-19T19:45:17.774Z,18.82
2019-01-19T19:48:32.092Z,18.40
2019-01-19T19:52:00.515Z,19.92
2019-01-19T19:54:31.730Z,19.70
2019-01-19T19:57:01.426Z,17.42
2019-01-19T19:59:30.658Z,18.98
2019-01-19T20:01:59.772Z,16.73
2019-01-19T20:04:28.864Z,18.60
2019-01-19T20:06:58.274Z,15.85
2019-01-19T20:09:27.512Z,18.95
2019-01-19T20:12:07.642Z,17.37
2019-01-19T20:14:37.775Z,18.57
2019-01-19T20:17:07.662Z,17.40
2019-01-19T20:19:37.667Z,18.12
2019-01-19T20:22:06.742Z,16.67
2019-01-19T20:24:35.860Z,18.65
2019-01-19T20:27:05.164Z,17.85
2019-01-19T20:29:34.204Z,17.77
2019-01-19T20:32:05.357Z,17.77
2019-01-19T20:34:35.434Z,18.00
2019-01-19T20:37:04.605Z,18.30
2019-01-19T20:39:33.694Z,19.05
2019-01-19T20:42:02.889Z,18.65
2019-01-19T20:44:32.908Z,16.00
2019-01-19T20:47:01.969Z,18.07
2019-01-19T20:49:31.163Z,16.35
2019-01-19T20:52:00.298Z,17.85
2019-01-19T20:54:30.397Z,17.75
2019-01-19T20:57:00.384Z,16.42
2019-01-19T20:59:30.450Z,20.23
2019-01-19T21:01:59.457Z,16.80
2019-01-19T21:04:29.553Z,18.73
2019-01-19T21:06:58.646Z,17.57
2019-01-19T21:09:27.760Z,18.50
2019-01-19T21:11:56.745Z,18.70
2019-01-19T21:14:26.776Z,19.10
2019-01-19T21:16:55.818Z,18.50
2019-01-19T21:19:24.884Z,18.57
2019-01-19T21:21:53.768Z,20.23
2019-01-19T21:24:22.674Z,18.37
2019-01-19T21:26:51.698Z,19.60
2019-01-19T21:29:22.670Z,18.57
2019-01-19T21:31:52.758Z,20.27
2019-01-19T21:34:21.718Z,19.52
2019-01-19T21:36:50.758Z,19.35
2019-01-19T21:39:19.699Z,19.32
2019-01-19T21:41:48.650Z,19.27
2019-01-19T21:44:20.832Z,18.90
2019-01-19T21:46:49.760Z,18.95
2019-01-19T21:49:20.743Z,19.50
2019-01-19T21:51:49.762Z,17.90
2019-01-19T21:54:20.686Z,19.95
2019-01-19T21:56:49.625Z,19.77
2019-01-19T21:59:25.093Z,19.10
2019-01-19T22:01:54.034Z,20.77
2019-01-19T22:04:22.924Z,21.12
2019-01-19T22:06:52.921Z,19.50
2019-01-19T22:09:22.998Z,19.60
2019-01-19T22:11:52.285Z,19.60
2019-01-19T22:14:21.239Z,18.23
2019-01-19T22:16:50.164Z,18.77
2019-01-19T22:19:19.116Z,18.50
2019-01-19T22:21:48.184Z,16.77
2019-01-19T22:24:17.126Z,20.08
2019-01-19T22:26:49.299Z,17.75
2019-01-19T22:29:19.451Z,16.27
2019-01-19T22:31:48.440Z,17.87
2019-01-19T22:34:17.430Z,18.05
2019-01-19T22:36:46.402Z,17.62
2019-01-19T22:39:15.458Z,16.73
2019-01-19T22:41:44.469Z,16.42
2019-01-19T22:44:19.499Z,17.02
2019-01-19T22:46:48.498Z,16.20
2019-01-19T22:49:18.494Z,18.87
2019-01-19T22:51:47.497Z,18.57
2019-01-19T22:54:16.553Z,17.25
2019-01-19T22:56:45.490Z,17.98
2019-01-19T22:59:15.481Z,18.07
2019-01-19T23:01:51.573Z,17.48
2019-01-19T23:04:20.486Z,20.57
2019-01-19T23:06:49.486Z,17.00
2019-01-19T23:09:18.752Z,18.17
2019-01-19T23:11:47.742Z,18.32
2019-01-19T23:14:16.835Z,18.65
2019-01-19T23:16:45.903Z,19.85
2019-01-19T23:19:14.918Z,20.35
2019-01-19T23:21:43.903Z,19.92
2019-01-19T23:24:12.828Z,20.00
2019-01-19T23:26:42.984Z,19.17
2019-01-19T23:29:11.927Z,20.32
2019-01-19T23:31:40.921Z,19.77
2019-01-19T23:34:10.003Z,19.12
2019-01-19T23:36:38.997Z,19.85
2019-01-19T23:39:10.162Z,20.65
2019-01-19T23:41:39.171Z,20.27
2019-01-19T23:44:08.111Z,21.20
2019-01-19T23:46:37.118Z,20.08
2019-01-19T23:49:06.128Z,20.27
2019-01-19T23:51:35.114Z,20.35
2019-01-19T23:54:04.738Z,20.27
2019-01-19T23:56:33.647Z,20.20
2019-01-19T23:59:02.684Z,19.85
